sensor_id;sensor_type;location;lat;lon;timestamp;pressure;altitude;pressure_sealevel;temperature;humidity
70555;BME280;58104;52.744;15.242;2024-01-30T00:02:07;102234.79;;;16.72;43.26
70555;BME280;58104;52.744;15.242;2024-01-30T00:04:32;102235.76;;;16.62;43.64
70555;BME280;58104;52.744;15.242;2024-01-30T00:06:57;102233.53;;;16.69;43.46
70555;BME280;58104;52.744;15.242;2024-01-30T00:09:23;102231.05;;;16.71;43.74
70555;BME280;58104;52.744;15.242;2024-01-30T00:11:48;102235.15;;;16.71;44.04
70555;BME280;58104;52.744;15.242;2024-01-30T00:14:13;102238.63;;;16.72;43.63
70555;BME280;58104;52.744;15.242;2024-01-30T00:16:39;102241.60;;;16.76;43.49
70555;BME280;58104;52.744;15.242;2024-01-30T00:19:05;102243.55;;;16.68;43.35
70555;BME280;58104;52.744;15.242;2024-01-30T00:21:30;102246.89;;;16.66;43.14
70555;BME280;58104;52.744;15.242;2024-01-30T00:23:56;102242.52;;;16.69;43.31
70555;BME280;58104;52.744;15.242;2024-01-30T00:26:22;102242.24;;;16.69;42.70
70555;BME280;58104;52.744;15.242;2024-01-30T00:28:48;102239.21;;;16.61;43.28
70555;BME280;58104;52.744;15.242;2024-01-30T00:31:13;102240.93;;;16.69;43.68
70555;BME280;58104;52.744;15.242;2024-01-30T00:33:38;102236.04;;;16.66;42.69
70555;BME280;58104;52.744;15.242;2024-01-30T00:36:05;102244.23;;;16.70;43.18
70555;BME280;58104;52.744;15.242;2024-01-30T00:38:30;102244.47;;;16.76;42.65
70555;BME280;58104;52.744;15.242;2024-01-30T00:40:55;102246.13;;;16.66;43.59
70555;BME280;58104;52.744;15.242;2024-01-30T00:43:21;102246.95;;;16.64;43.49
70555;BME280;58104;52.744;15.242;2024-01-30T00:45:47;102244.83;;;16.71;42.82
70555;BME280;58104;52.744;15.242;2024-01-30T00:48:12;102246.98;;;16.74;43.42
70555;BME280;58104;52.744;15.242;2024-01-30T00:50:38;102245.06;;;16.63;42.99
70555;BME280;58104;52.744;15.242;2024-01-30T00:53:03;102244.81;;;16.67;43.58
70555;BME280;58104;52.744;15.242;2024-01-30T00:55:28;102247.82;;;16.64;43.43
70555;BME280;58104;52.744;15.242;2024-01-30T00:57:54;102247.31;;;16.66;43.48
70555;BME280;58104;52.744;15.242;2024-01-30T01:00:19;102244.59;;;16.66;42.93
70555;BME280;58104;52.744;15.242;2024-01-30T01:02:44;102245.81;;;16.70;42.74
70555;BME280;58104;52.744;15.242;2024-01-30T01:05:10;102243.89;;;16.67;42.21
70555;BME280;58104;52.744;15.242;2024-01-30T01:07:35;102243.09;;;16.66;43.29
70555;BME280;58104;52.744;15.242;2024-01-30T01:10:00;102241.37;;;16.67;42.51
70555;BME280;58104;52.744;15.242;2024-01-30T01:12:25;102243.15;;;16.61;43.15
70555;BME280;58104;52.744;15.242;2024-01-30T01:14:50;102245.19;;;16.61;43.23
70555;BME280;58104;52.744;15.242;2024-01-30T01:17:16;102242.55;;;16.66;42.98
70555;BME280;58104;52.744;15.242;2024-01-30T01:19:41;102242.83;;;16.66;42.59
70555;BME280;58104;52.744;15.242;2024-01-30T01:22:06;102240.25;;;16.62;43.22
70555;BME280;58104;52.744;15.242;2024-01-30T01:24:31;102240.54;;;16.63;43.01
70555;BME280;58104;52.744;15.242;2024-01-30T01:26:58;102234.32;;;16.51;43.47
70555;BME280;58104;52.744;15.242;2024-01-30T01:29:21;102228.38;;;16.53;43.29
70555;BME280;58104;52.744;15.242;2024-01-30T01:31:47;102226.41;;;16.60;42.62
70555;BME280;58104;52.744;15.242;2024-01-30T01:34:13;102224.64;;;16.50;43.32
70555;BME280;58104;52.744;15.242;2024-01-30T01:36:38;102227.82;;;16.59;43.60
70555;BME280;58104;52.744;15.242;2024-01-30T01:39:04;102224.44;;;16.52;42.84
70555;BME280;58104;52.744;15.242;2024-01-30T01:41:30;102224.96;;;16.54;43.05
70555;BME280;58104;52.744;15.242;2024-01-30T01:43:54;102223.53;;;16.58;43.23
70555;BME280;58104;52.744;15.242;2024-01-30T01:46:20;102225.72;;;16.48;43.16
70555;BME280;58104;52.744;15.242;2024-01-30T01:48:45;102221.32;;;16.54;43.39
70555;BME280;58104;52.744;15.242;2024-01-30T01:51:10;102221.16;;;16.50;43.35
70555;BME280;58104;52.744;15.242;2024-01-30T01:53:35;102219.24;;;16.59;42.97
70555;BME280;58104;52.744;15.242;2024-01-30T01:56:01;102220.38;;;16.52;43.29
70555;BME280;58104;52.744;15.242;2024-01-30T01:58:28;102222.06;;;16.43;43.62
70555;BME280;58104;52.744;15.242;2024-01-30T02:00:53;102219.73;;;16.42;43.27
70555;BME280;58104;52.744;15.242;2024-01-30T02:03:19;102221.01;;;16.50;42.64
70555;BME280;58104;52.744;15.242;2024-01-30T02:05:44;102220.62;;;16.39;43.25
70555;BME280;58104;52.744;15.242;2024-01-30T02:08:09;102223.98;;;16.46;43.20
70555;BME280;58104;52.744;15.242;2024-01-30T02:10:34;102225.73;;;16.46;43.01
70555;BME280;58104;52.744;15.242;2024-01-30T02:13:00;102228.68;;;16.41;42.60
70555;BME280;58104;52.744;15.242;2024-01-30T02:15:25;102224.87;;;16.54;42.87
70555;BME280;58104;52.744;15.242;2024-01-30T02:17:50;102228.65;;;16.46;42.64
70555;BME280;58104;52.744;15.242;2024-01-30T02:20:16;102230.08;;;16.48;42.82
70555;BME280;58104;52.744;15.242;2024-01-30T02:22:43;102229.76;;;16.44;43.13
70555;BME280;58104;52.744;15.242;2024-01-30T02:25:08;102229.95;;;16.38;43.49
70555;BME280;58104;52.744;15.242;2024-01-30T02:27:32;102231.30;;;16.48;43.30
70555;BME280;58104;52.744;15.242;2024-01-30T02:29:57;102229.85;;;16.54;43.36
70555;BME280;58104;52.744;15.242;2024-01-30T02:32:23;102231.38;;;16.60;43.24
70555;BME280;58104;52.744;15.242;2024-01-30T02:34:48;102230.79;;;16.47;43.32
70555;BME280;58104;52.744;15.242;2024-01-30T02:37:14;102228.61;;;16.45;42.79
70555;BME280;58104;52.744;15.242;2024-01-30T02:39:39;102224.46;;;16.58;42.66
70555;BME280;58104;52.744;15.242;2024-01-30T02:42:05;102221.20;;;16.50;42.43
70555;BME280;58104;52.744;15.242;2024-01-30T02:44:30;102220.00;;;16.49;43.10
70555;BME280;58104;52.744;15.242;2024-01-30T02:46:55;102217.85;;;16.42;42.74
70555;BME280;58104;52.744;15.242;2024-01-30T02:49:20;102217.95;;;16.45;43.51
70555;BME280;58104;52.744;15.242;2024-01-30T02:51:46;102214.40;;;16.48;42.60
70555;BME280;58104;52.744;15.242;2024-01-30T02:54:11;102210.84;;;16.38;42.84
70555;BME280;58104;52.744;15.242;2024-01-30T02:56:37;102210.11;;;16.52;41.49
70555;BME280;58104;52.744;15.242;2024-01-30T02:59:02;102207.28;;;16.33;42.90
70555;BME280;58104;52.744;15.242;2024-01-30T03:01:28;102206.41;;;16.33;43.14
70555;BME280;58104;52.744;15.242;2024-01-30T03:03:53;102205.53;;;16.39;43.13
70555;BME280;58104;52.744;15.242;2024-01-30T03:06:18;102202.81;;;16.35;43.14
70555;BME280;58104;52.744;15.242;2024-01-30T03:08:44;102201.47;;;16.22;43.56
70555;BME280;58104;52.744;15.242;2024-01-30T03:11:10;102198.57;;;16.26;43.37
70555;BME280;58104;52.744;15.242;2024-01-30T03:13:35;102196.23;;;16.30;43.15
70555;BME280;58104;52.744;15.242;2024-01-30T03:16:01;102197.31;;;16.21;43.50
70555;BME280;58104;52.744;15.242;2024-01-30T03:18:26;102194.82;;;16.22;41.81
70555;BME280;58104;52.744;15.242;2024-01-30T03:20:51;102196.87;;;16.13;43.78
70555;BME280;58104;52.744;15.242;2024-01-30T03:23:16;102196.67;;;16.13;43.26
70555;BME280;58104;52.744;15.242;2024-01-30T03:25:42;102194.32;;;16.21;42.89
70555;BME280;58104;52.744;15.242;2024-01-30T03:28:08;102194.46;;;16.22;43.39
70555;BME280;58104;52.744;15.242;2024-01-30T03:30:34;102191.17;;;16.26;43.27
70555;BME280;58104;52.744;15.242;2024-01-30T03:33:00;102191.66;;;16.14;43.17
70555;BME280;58104;52.744;15.242;2024-01-30T03:35:25;102191.73;;;16.26;43.23
70555;BME280;58104;52.744;15.242;2024-01-30T03:37:50;102193.66;;;16.13;43.47
70555;BME280;58104;52.744;15.242;2024-01-30T03:40:17;102190.50;;;16.07;42.74
70555;BME280;58104;52.744;15.242;2024-01-30T03:42:41;102195.04;;;16.13;43.67
70555;BME280;58104;52.744;15.242;2024-01-30T03:45:08;102191.89;;;16.17;43.78
70555;BME280;58104;52.744;15.242;2024-01-30T03:47:33;102191.42;;;16.14;43.73
70555;BME280;58104;52.744;15.242;2024-01-30T03:49:58;102192.09;;;16.19;43.25
70555;BME280;58104;52.744;15.242;2024-01-30T03:52:24;102194.67;;;16.13;43.43
70555;BME280;58104;52.744;15.242;2024-01-30T03:54:49;102198.76;;;16.14;42.31
70555;BME280;58104;52.744;15.242;2024-01-30T03:57:15;102194.64;;;16.19;43.33
70555;BME280;58104;52.744;15.242;2024-01-30T03:59:42;102194.41;;;16.14;43.19
70555;BME280;58104;52.744;15.242;2024-01-30T04:02:06;102197.42;;;16.10;43.21
70555;BME280;58104;52.744;15.242;2024-01-30T04:04:31;102195.63;;;16.17;43.49
70555;BME280;58104;52.744;15.242;2024-01-30T04:06:57;102194.25;;;16.23;42.72
70555;BME280;58104;52.744;15.242;2024-01-30T04:09:22;102194.44;;;16.19;43.13
70555;BME280;58104;52.744;15.242;2024-01-30T04:11:48;102193.27;;;16.17;43.40
70555;BME280;58104;52.744;15.242;2024-01-30T04:14:13;102190.97;;;16.05;43.15
70555;BME280;58104;52.744;15.242;2024-01-30T04:16:39;102188.03;;;16.07;43.29
70555;BME280;58104;52.744;15.242;2024-01-30T04:19:04;102187.52;;;15.97;43.14
70555;BME280;58104;52.744;15.242;2024-01-30T04:21:29;102185.56;;;16.02;43.42
70555;BME280;58104;52.744;15.242;2024-01-30T04:23:55;102187.07;;;15.85;43.99
70555;BME280;58104;52.744;15.242;2024-01-30T04:26:20;102191.20;;;15.85;42.62
70555;BME280;58104;52.744;15.242;2024-01-30T04:28:45;102190.19;;;15.76;43.72
70555;BME280;58104;52.744;15.242;2024-01-30T04:31:11;102192.76;;;15.75;44.32
70555;BME280;58104;52.744;15.242;2024-01-30T04:33:36;102190.84;;;15.86;44.20
70555;BME280;58104;52.744;15.242;2024-01-30T04:36:01;102188.58;;;15.91;43.43
70555;BME280;58104;52.744;15.242;2024-01-30T04:38:27;102186.70;;;16.00;44.04
70555;BME280;58104;52.744;15.242;2024-01-30T04:40:53;102185.16;;;15.90;44.09
70555;BME280;58104;52.744;15.242;2024-01-30T04:43:18;102189.08;;;16.11;44.36
70555;BME280;58104;52.744;15.242;2024-01-30T04:45:44;102193.64;;;16.21;44.79
70555;BME280;58104;52.744;15.242;2024-01-30T04:48:09;102192.93;;;16.24;44.17
70555;BME280;58104;52.744;15.242;2024-01-30T04:50:35;102196.54;;;16.18;43.93
70555;BME280;58104;52.744;15.242;2024-01-30T04:53:00;102197.29;;;16.24;42.71
70555;BME280;58104;52.744;15.242;2024-01-30T04:55:26;102195.19;;;16.21;43.50
70555;BME280;58104;52.744;15.242;2024-01-30T04:57:51;102194.53;;;16.20;44.21
70555;BME280;58104;52.744;15.242;2024-01-30T05:00:17;102196.17;;;16.30;43.65
70555;BME280;58104;52.744;15.242;2024-01-30T05:02:42;102197.10;;;16.32;42.93
70555;BME280;58104;52.744;15.242;2024-01-30T05:05:08;102197.49;;;16.33;43.70
70555;BME280;58104;52.744;15.242;2024-01-30T05:07:33;102194.36;;;16.35;44.62
70555;BME280;58104;52.744;15.242;2024-01-30T05:09:59;102194.15;;;16.35;44.33
70555;BME280;58104;52.744;15.242;2024-01-30T05:12:24;102193.56;;;16.39;45.29
70555;BME280;58104;52.744;15.242;2024-01-30T05:14:50;102193.93;;;16.33;45.66
70555;BME280;58104;52.744;15.242;2024-01-30T05:17:16;102194.91;;;16.46;46.24
70555;BME280;58104;52.744;15.242;2024-01-30T05:19:40;102192.97;;;16.52;46.42
70555;BME280;58104;52.744;15.242;2024-01-30T05:22:06;102195.50;;;16.56;45.91
70555;BME280;58104;52.744;15.242;2024-01-30T05:24:31;102194.25;;;16.54;46.49
70555;BME280;58104;52.744;15.242;2024-01-30T05:26:56;102196.75;;;16.54;46.84
70555;BME280;58104;52.744;15.242;2024-01-30T05:29:22;102196.51;;;16.55;46.57
70555;BME280;58104;52.744;15.242;2024-01-30T05:31:47;102191.24;;;16.64;46.65
70555;BME280;58104;52.744;15.242;2024-01-30T05:34:13;102195.51;;;16.55;46.53
70555;BME280;58104;52.744;15.242;2024-01-30T05:36:44;102198.85;;;16.55;46.60
70555;BME280;58104;52.744;15.242;2024-01-30T05:39:08;102198.74;;;16.53;46.35
70555;BME280;58104;52.744;15.242;2024-01-30T05:41:30;102198.37;;;16.53;46.16
70555;BME280;58104;52.744;15.242;2024-01-30T05:43:55;102199.77;;;16.54;46.34
70555;BME280;58104;52.744;15.242;2024-01-30T05:46:20;102197.84;;;16.61;47.23
70555;BME280;58104;52.744;15.242;2024-01-30T05:48:46;102195.41;;;16.62;47.19
70555;BME280;58104;52.744;15.242;2024-01-30T05:51:11;102193.06;;;16.57;47.58
70555;BME280;58104;52.744;15.242;2024-01-30T05:53:37;102197.69;;;16.52;46.01
70555;BME280;58104;52.744;15.242;2024-01-30T05:56:02;102196.34;;;16.47;45.83
70555;BME280;58104;52.744;15.242;2024-01-30T05:58:27;102193.40;;;16.48;45.90
70555;BME280;58104;52.744;15.242;2024-01-30T06:00:52;102193.21;;;16.38;45.15
70555;BME280;58104;52.744;15.242;2024-01-30T06:03:18;102195.68;;;16.37;45.55
70555;BME280;58104;52.744;15.242;2024-01-30T06:05:44;102195.74;;;16.40;52.19
70555;BME280;58104;52.744;15.242;2024-01-30T06:08:09;102198.57;;;16.38;55.05
70555;BME280;58104;52.744;15.242;2024-01-30T06:10:35;102195.46;;;16.63;51.00
70555;BME280;58104;52.744;15.242;2024-01-30T06:13:00;102192.69;;;16.77;50.72
70555;BME280;58104;52.744;15.242;2024-01-30T06:15:26;102188.97;;;16.85;48.95
70555;BME280;58104;52.744;15.242;2024-01-30T06:17:52;102187.87;;;16.78;49.70
70555;BME280;58104;52.744;15.242;2024-01-30T06:20:20;102190.69;;;16.91;48.91
70555;BME280;58104;52.744;15.242;2024-01-30T06:22:42;102191.45;;;16.85;48.56
70555;BME280;58104;52.744;15.242;2024-01-30T06:25:08;102192.66;;;16.85;47.01
70555;BME280;58104;52.744;15.242;2024-01-30T06:27:33;102194.75;;;16.91;47.36
70555;BME280;58104;52.744;15.242;2024-01-30T06:29:59;102195.32;;;16.86;49.95
70555;BME280;58104;52.744;15.242;2024-01-30T06:32:24;102195.97;;;16.90;45.86
70555;BME280;58104;52.744;15.242;2024-01-30T06:34:49;102193.87;;;16.85;47.29
70555;BME280;58104;52.744;15.242;2024-01-30T06:37:15;102193.11;;;16.91;47.18
70555;BME280;58104;52.744;15.242;2024-01-30T06:39:40;102195.61;;;16.85;46.88
70555;BME280;58104;52.744;15.242;2024-01-30T06:42:06;102195.76;;;16.87;46.73
70555;BME280;58104;52.744;15.242;2024-01-30T06:44:31;102195.76;;;16.94;45.95
70555;BME280;58104;52.744;15.242;2024-01-30T06:46:56;102197.24;;;16.88;46.35
70555;BME280;58104;52.744;15.242;2024-01-30T06:49:21;102197.18;;;16.89;46.86
70555;BME280;58104;52.744;15.242;2024-01-30T06:51:47;102196.72;;;16.88;46.02
70555;BME280;58104;52.744;15.242;2024-01-30T06:54:12;102195.25;;;16.88;46.69
70555;BME280;58104;52.744;15.242;2024-01-30T06:56:38;102191.95;;;16.88;46.73
70555;BME280;58104;52.744;15.242;2024-01-30T06:59:03;102187.48;;;16.95;46.20
70555;BME280;58104;52.744;15.242;2024-01-30T07:01:28;102185.10;;;16.94;46.13
70555;BME280;58104;52.744;15.242;2024-01-30T07:03:54;102187.83;;;17.00;46.16
70555;BME280;58104;52.744;15.242;2024-01-30T07:06:21;102186.52;;;16.96;46.04
70555;BME280;58104;52.744;15.242;2024-01-30T07:08:45;102187.25;;;17.02;46.41
70555;BME280;58104;52.744;15.242;2024-01-30T07:11:10;102189.98;;;17.04;45.64
70555;BME280;58104;52.744;15.242;2024-01-30T07:13:36;102191.38;;;17.05;46.65
70555;BME280;58104;52.744;15.242;2024-01-30T07:16:01;102191.87;;;17.00;46.19
70555;BME280;58104;52.744;15.242;2024-01-30T07:18:27;102192.12;;;16.96;46.26
70555;BME280;58104;52.744;15.242;2024-01-30T07:20:53;102192.65;;;17.05;46.18
70555;BME280;58104;52.744;15.242;2024-01-30T07:23:19;102196.75;;;17.13;46.06
70555;BME280;58104;52.744;15.242;2024-01-30T07:25:44;102200.14;;;17.09;45.00
70555;BME280;58104;52.744;15.242;2024-01-30T07:28:10;102202.01;;;17.15;45.53
70555;BME280;58104;52.744;15.242;2024-01-30T07:30:36;102200.22;;;17.12;46.50
70555;BME280;58104;52.744;15.242;2024-01-30T07:33:00;102202.87;;;17.14;46.03
70555;BME280;58104;52.744;15.242;2024-01-30T07:35:26;102199.94;;;17.15;45.89
70555;BME280;58104;52.744;15.242;2024-01-30T07:37:51;102201.78;;;17.23;45.47
70555;BME280;58104;52.744;15.242;2024-01-30T07:40:17;102202.54;;;17.17;44.10
70555;BME280;58104;52.744;15.242;2024-01-30T07:42:42;102199.85;;;17.23;45.71
70555;BME280;58104;52.744;15.242;2024-01-30T07:45:09;102195.41;;;17.25;44.51
70555;BME280;58104;52.744;15.242;2024-01-30T07:47:34;102193.05;;;17.31;44.30
70555;BME280;58104;52.744;15.242;2024-01-30T07:49:59;102192.99;;;17.29;44.65
70555;BME280;58104;52.744;15.242;2024-01-30T07:52:25;102192.05;;;17.20;43.86
70555;BME280;58104;52.744;15.242;2024-01-30T07:54:51;102191.23;;;17.20;43.64
70555;BME280;58104;52.744;15.242;2024-01-30T07:57:15;102191.45;;;17.20;44.97
70555;BME280;58104;52.744;15.242;2024-01-30T07:59:42;102191.13;;;17.27;44.95
70555;BME280;58104;52.744;15.242;2024-01-30T08:02:06;102193.39;;;17.31;46.68
70555;BME280;58104;52.744;15.242;2024-01-30T08:04:31;102198.09;;;17.34;46.38
70555;BME280;58104;52.744;15.242;2024-01-30T08:06:57;102199.36;;;17.44;46.53
70555;BME280;58104;52.744;15.242;2024-01-30T08:09:22;102198.91;;;17.56;46.74
70555;BME280;58104;52.744;15.242;2024-01-30T08:11:47;102198.32;;;17.59;47.43
70555;BME280;58104;52.744;15.242;2024-01-30T08:14:12;102200.10;;;17.70;46.18
70555;BME280;58104;52.744;15.242;2024-01-30T08:16:37;102200.56;;;17.72;45.47
70555;BME280;58104;52.744;15.242;2024-01-30T08:19:03;102197.78;;;17.89;45.72
70555;BME280;58104;52.744;15.242;2024-01-30T08:21:29;102199.03;;;17.91;45.84
70555;BME280;58104;52.744;15.242;2024-01-30T08:23:55;102200.70;;;17.94;48.54
70555;BME280;58104;52.744;15.242;2024-01-30T08:26:20;102202.28;;;17.99;49.41
70555;BME280;58104;52.744;15.242;2024-01-30T08:28:45;102199.39;;;18.14;50.39
70555;BME280;58104;52.744;15.242;2024-01-30T08:31:11;102202.06;;;18.16;50.88
70555;BME280;58104;52.744;15.242;2024-01-30T08:33:36;102197.58;;;18.34;52.27
70555;BME280;58104;52.744;15.242;2024-01-30T08:36:02;102195.65;;;18.43;50.69
70555;BME280;58104;52.744;15.242;2024-01-30T08:38:28;102191.09;;;18.51;49.86
70555;BME280;58104;52.744;15.242;2024-01-30T08:40:54;102189.45;;;18.54;53.84
70555;BME280;58104;52.744;15.242;2024-01-30T08:43:19;102183.26;;;18.59;49.81
70555;BME280;58104;52.744;15.242;2024-01-30T08:45:44;102181.90;;;18.54;46.63
70555;BME280;58104;52.744;15.242;2024-01-30T08:48:09;102181.55;;;18.13;46.84
70555;BME280;58104;52.744;15.242;2024-01-30T08:50:34;102182.28;;;17.88;48.22
70555;BME280;58104;52.744;15.242;2024-01-30T08:53:00;102178.80;;;17.32;43.83
70555;BME280;58104;52.744;15.242;2024-01-30T08:55:26;102179.53;;;17.42;46.65
70555;BME280;58104;52.744;15.242;2024-01-30T08:57:51;102176.27;;;17.42;41.37
70555;BME280;58104;52.744;15.242;2024-01-30T09:00:17;102177.36;;;17.51;47.18
70555;BME280;58104;52.744;15.242;2024-01-30T09:02:42;102179.88;;;17.89;48.66
70555;BME280;58104;52.744;15.242;2024-01-30T09:05:08;102178.30;;;18.00;44.88
70555;BME280;58104;52.744;15.242;2024-01-30T09:07:33;102178.19;;;18.21;45.19
70555;BME280;58104;52.744;15.242;2024-01-30T09:09:58;102174.78;;;18.16;43.98
70555;BME280;58104;52.744;15.242;2024-01-30T09:12:23;102172.82;;;18.41;43.60
70555;BME280;58104;52.744;15.242;2024-01-30T09:14:49;102172.81;;;18.68;39.28
70555;BME280;58104;52.744;15.242;2024-01-30T09:17:14;102170.27;;;18.88;38.35
70555;BME280;58104;52.744;15.242;2024-01-30T09:19:40;102169.76;;;19.12;40.68
70555;BME280;58104;52.744;15.242;2024-01-30T09:22:05;102169.91;;;19.00;34.82
70555;BME280;58104;52.744;15.242;2024-01-30T09:24:30;102173.88;;;19.14;39.69
70555;BME280;58104;52.744;15.242;2024-01-30T09:26:56;102168.39;;;19.54;37.40
70555;BME280;58104;52.744;15.242;2024-01-30T09:29:21;102171.98;;;19.93;35.10
70555;BME280;58104;52.744;15.242;2024-01-30T09:31:47;102176.66;;;20.13;33.72
70555;BME280;58104;52.744;15.242;2024-01-30T09:34:12;102176.87;;;20.38;35.02
70555;BME280;58104;52.744;15.242;2024-01-30T09:36:37;102174.42;;;20.51;34.36
70555;BME280;58104;52.744;15.242;2024-01-30T09:39:03;102175.11;;;20.54;34.06
70555;BME280;58104;52.744;15.242;2024-01-30T09:41:29;102169.28;;;20.81;34.43
70555;BME280;58104;52.744;15.242;2024-01-30T09:43:54;102169.57;;;20.94;33.10
70555;BME280;58104;52.744;15.242;2024-01-30T09:46:21;102163.52;;;21.13;33.13
70555;BME280;58104;52.744;15.242;2024-01-30T09:48:46;102170.05;;;21.51;32.91
70555;BME280;58104;52.744;15.242;2024-01-30T09:51:11;102170.72;;;21.77;32.08
70555;BME280;58104;52.744;15.242;2024-01-30T09:53:37;102178.22;;;22.22;32.52
70555;BME280;58104;52.744;15.242;2024-01-30T09:56:04;102179.72;;;22.55;30.97
70555;BME280;58104;52.744;15.242;2024-01-30T09:58:27;102179.91;;;22.57;30.76
70555;BME280;58104;52.744;15.242;2024-01-30T10:00:52;102179.50;;;22.45;30.80
70555;BME280;58104;52.744;15.242;2024-01-30T10:03:18;102180.17;;;22.53;31.85
70555;BME280;58104;52.744;15.242;2024-01-30T10:05:46;102180.74;;;22.79;31.20
70555;BME280;58104;52.744;15.242;2024-01-30T10:08:09;102173.27;;;23.09;30.61
70555;BME280;58104;52.744;15.242;2024-01-30T10:10:34;102176.21;;;23.32;30.07
70555;BME280;58104;52.744;15.242;2024-01-30T10:13:00;102172.74;;;23.35;30.44
70555;BME280;58104;52.744;15.242;2024-01-30T10:15:26;102167.41;;;23.32;30.54
70555;BME280;58104;52.744;15.242;2024-01-30T10:17:51;102161.21;;;23.70;29.48
70555;BME280;58104;52.744;15.242;2024-01-30T10:20:16;102164.30;;;24.30;27.75
70555;BME280;58104;52.744;15.242;2024-01-30T10:22:42;102169.65;;;24.72;27.52
70555;BME280;58104;52.744;15.242;2024-01-30T10:25:07;102170.33;;;24.89;28.03
70555;BME280;58104;52.744;15.242;2024-01-30T10:27:33;102165.09;;;25.74;27.12
70555;BME280;58104;52.744;15.242;2024-01-30T10:29:58;102163.89;;;26.04;26.80
70555;BME280;58104;52.744;15.242;2024-01-30T10:32:23;102165.66;;;26.38;26.68
70555;BME280;58104;52.744;15.242;2024-01-30T10:34:48;102164.93;;;26.74;26.72
70555;BME280;58104;52.744;15.242;2024-01-30T10:37:15;102167.09;;;27.10;25.78
70555;BME280;58104;52.744;15.242;2024-01-30T10:39:39;102160.94;;;27.25;25.06
70555;BME280;58104;52.744;15.242;2024-01-30T10:42:05;102158.80;;;27.24;25.93
70555;BME280;58104;52.744;15.242;2024-01-30T10:44:36;102153.71;;;27.31;25.93
70555;BME280;58104;52.744;15.242;2024-01-30T10:47:01;102150.25;;;27.42;24.02
70555;BME280;58104;52.744;15.242;2024-01-30T10:49:21;102146.78;;;27.41;25.96
70555;BME280;58104;52.744;15.242;2024-01-30T10:51:47;102150.02;;;27.21;26.15
70555;BME280;58104;52.744;15.242;2024-01-30T10:54:12;102147.04;;;27.27;26.36
70555;BME280;58104;52.744;15.242;2024-01-30T10:56:39;102143.18;;;27.30;25.86
70555;BME280;58104;52.744;15.242;2024-01-30T10:59:03;102139.44;;;27.32;25.58
70555;BME280;58104;52.744;15.242;2024-01-30T11:01:28;102139.59;;;27.29;26.39
70555;BME280;58104;52.744;15.242;2024-01-30T11:03:55;102134.66;;;27.36;25.97
70555;BME280;58104;52.744;15.242;2024-01-30T11:06:22;102129.01;;;27.21;26.43
70555;BME280;58104;52.744;15.242;2024-01-30T11:08:45;102125.13;;;27.22;26.67
70555;BME280;58104;52.744;15.242;2024-01-30T11:11:11;102123.22;;;27.28;26.86
70555;BME280;58104;52.744;15.242;2024-01-30T11:13:36;102121.31;;;27.20;26.99
70555;BME280;58104;52.744;15.242;2024-01-30T11:16:02;102118.16;;;27.00;27.21
70555;BME280;58104;52.744;15.242;2024-01-30T11:18:29;102110.22;;;26.96;27.36
70555;BME280;58104;52.744;15.242;2024-01-30T11:20:52;102108.68;;;26.80;27.56
70555;BME280;58104;52.744;15.242;2024-01-30T11:23:17;102109.24;;;26.87;27.55
70555;BME280;58104;52.744;15.242;2024-01-30T11:25:44;102104.93;;;26.95;27.46
70555;BME280;58104;52.744;15.242;2024-01-30T11:35:26;102096.52;;;26.84;27.46
70555;BME280;58104;52.744;15.242;2024-01-30T11:37:51;102093.58;;;27.12;27.28
70555;BME280;58104;52.744;15.242;2024-01-30T11:40:17;102094.49;;;27.13;27.23
70555;BME280;58104;52.744;15.242;2024-01-30T11:42:42;102092.20;;;27.32;27.06
70555;BME280;58104;52.744;15.242;2024-01-30T11:45:08;102088.91;;;27.13;27.09
70555;BME280;58104;52.744;15.242;2024-01-30T11:47:35;102088.59;;;27.00;27.33
70555;BME280;58104;52.744;15.242;2024-01-30T11:49:58;102083.82;;;26.77;27.67
70555;BME280;58104;52.744;15.242;2024-01-30T11:52:23;102081.41;;;26.74;27.68
70555;BME280;58104;52.744;15.242;2024-01-30T11:54:48;102079.90;;;27.04;27.33
70555;BME280;58104;52.744;15.242;2024-01-30T11:57:14;102076.91;;;26.81;27.60
70555;BME280;58104;52.744;15.242;2024-01-30T11:59:43;102075.04;;;26.78;27.65
70555;BME280;58104;52.744;15.242;2024-01-30T12:02:05;102071.69;;;26.79;27.60
70555;BME280;58104;52.744;15.242;2024-01-30T12:04:31;102071.11;;;26.46;28.00
70555;BME280;58104;52.744;15.242;2024-01-30T12:06:56;102066.61;;;26.31;28.17
70555;BME280;58104;52.744;15.242;2024-01-30T12:09:21;102066.24;;;26.38;28.18
70555;BME280;58104;52.744;15.242;2024-01-30T12:11:48;102061.86;;;26.45;28.09
70555;BME280;58104;52.744;15.242;2024-01-30T12:14:12;102060.72;;;26.47;28.01
70555;BME280;58104;52.744;15.242;2024-01-30T12:16:37;102061.07;;;26.17;28.38
70555;BME280;58104;52.744;15.242;2024-01-30T12:19:02;102059.27;;;25.97;28.66
70555;BME280;58104;52.744;15.242;2024-01-30T12:21:28;102056.68;;;25.84;28.86
70555;BME280;58104;52.744;15.242;2024-01-30T12:23:53;102057.03;;;25.96;28.74
70555;BME280;58104;52.744;15.242;2024-01-30T12:26:18;102054.58;;;25.68;29.11
70555;BME280;58104;52.744;15.242;2024-01-30T12:28:48;102048.93;;;25.54;29.24
70555;BME280;58104;52.744;15.242;2024-01-30T12:31:10;102050.35;;;25.64;29.13
70555;BME280;58104;52.744;15.242;2024-01-30T12:33:36;102043.00;;;25.64;29.19
70555;BME280;58104;52.744;15.242;2024-01-30T12:36:02;102042.99;;;25.23;29.69
70555;BME280;58104;52.744;15.242;2024-01-30T12:38:26;102041.36;;;24.98;29.86